Observation data for Memphis on 02/24/2019      Previous  Date       Current Mesonet Observations  Soil Data  Daily Summary Page  Observations in Plain Language
KMES 240600Z 27002KT M01/M07 A3022 RMK A01 T10101072  RH  062%=      5-min Rain = 0
KMES 240605Z 27001KT M01/M07 A3022 RMK A01 T10141074  RH  064%=      5-min Rain = 0
KMES 240610Z 26002KT M02/M07 A3022 RMK A01 T10181074  RH  065%=      5-min Rain = 0
KMES 240615Z 27004KT M02/M07 A3022 RMK A01 T10151070  RH  066%=      5-min Rain = 0
KMES 240620Z 26004KT M01/M07 A3023 RMK A01 T10111073  RH  062%=      5-min Rain = 0
KMES 240625Z 25003KT M01/M07 A3023 RMK A01 T10061074  RH  060%=      5-min Rain = 0
KMES 240630Z 19002KT M00/M08 A3023 RMK A01 T10041076  RH  058%=      5-min Rain = 0
KMES 240635Z 20002KT M01/M08 A3024 RMK A01 T10051075  RH  059%=      5-min Rain = 0
KMES 240640Z 22003KT M00/M08 A3024 RMK A01 T10041076  RH  058%=      5-min Rain = 0
KMES 240645Z 23003KT M01/M08 A3024 RMK A01 T10121076  RH  062%=      5-min Rain = 0
KMES 240650Z 20004KT M02/M07 A3024 RMK A01 T10161072  RH  066%=      5-min Rain = 0
KMES 240655Z 19005KT M02/M07 A3025 RMK A01 T10171072  RH  066%=      5-min Rain = 0
KMES 240700Z 18004KT M02/M07 A3025 RMK A01 T10201071  RH  068%=      5-min Rain = 0
KMES 240705Z 20004KT M02/M07 A3025 RMK A01 T10201071  RH  068%=      5-min Rain = 0
KMES 240710Z 21005KT M02/M07 A3025 RMK A01 T10201071  RH  068%=      5-min Rain = 0
KMES 240715Z 23005KT M02/M07 A3025 RMK A01 T10221070  RH  070%=      5-min Rain = 0
KMES 240720Z 24004KT M02/M07 A3026 RMK A01 T10231069  RH  070%=      5-min Rain = 0
KMES 240725Z 25003KT M02/M07 A3026 RMK A01 T10221070  RH  069%=      5-min Rain = 0
KMES 240730Z 23005KT M02/M07 A3026 RMK A01 T10211071  RH  069%=      5-min Rain = 0
KMES 240735Z 22005KT M02/M07 A3026 RMK A01 T10221072  RH  069%=      5-min Rain = 0
KMES 240740Z 21005KT M02/M07 A3027 RMK A01 T10231072  RH  069%=      5-min Rain = 0
KMES 240745Z 23005KT M02/M07 A3027 RMK A01 T10231072  RH  069%=      5-min Rain = 0
KMES 240750Z 24005KT M02/M07 A3027 RMK A01 T10241071  RH  070%=      5-min Rain = 0
KMES 240755Z 26005KT M02/M07 A3028 RMK A01 T10211071  RH  068%=      5-min Rain = 0
KMES 240800Z 26005KT M02/M07 A3028 RMK A01 T10201073  RH  067%=      5-min Rain = 0
KMES 240805Z 24005KT M02/M07 A3028 RMK A01 T10211074  RH  067%=      5-min Rain = 0
KMES 240810Z 22004KT M02/M07 A3028 RMK A01 T10231074  RH  068%=      5-min Rain = 0
KMES 240815Z 21002KT M02/M07 A3029 RMK A01 T10241073  RH  069%=      5-min Rain = 0
KMES 240820Z 27003KT M03/M07 A3029 RMK A01 T10251073  RH  069%=      5-min Rain = 0
KMES 240825Z 29004KT M03/M07 A3028 RMK A01 T10251073  RH  070%=      5-min Rain = 0
KMES 240830Z 28004KT M03/M07 A3028 RMK A01 T10271073  RH  071%=      5-min Rain = 0
KMES 240835Z 28003KT M03/M07 A3028 RMK A01 T10271073  RH  071%=      5-min Rain = 0
KMES 240840Z 28002KT M03/M07 A3029 RMK A01 T10281074  RH  071%=      5-min Rain = 0
KMES 240845Z 30000KT M03/M08 A3029 RMK A01 T10321078  RH  070%=      5-min Rain = 0
KMES 240850Z 31000KT M04/M08 A3029 RMK A01 T10431082  RH  074%=      5-min Rain = 0
KMES 240855Z 32002KT M05/M08 A3028 RMK A01 T10481083  RH  077%=      5-min Rain = 0
KMES 240900Z 30004KT M05/M08 A3028 RMK A01 T10491079  RH  079%=      5-min Rain = 0
KMES 240905Z 29003KT M05/M08 A3028 RMK A01 T10451075  RH  080%=      5-min Rain = 0
KMES 240910Z 30000KT M05/M08 A3029 RMK A01 T10451079  RH  077%=      5-min Rain = 0
KMES 240915Z 26001KT M05/M08 A3029 RMK A01 T10481078  RH  079%=      5-min Rain = 0
KMES 240920Z 29002KT M04/M08 A3028 RMK A01 T10441075  RH  079%=      5-min Rain = 0
KMES 240925Z 31001KT M04/M08 A3028 RMK A01 T10441076  RH  079%=      5-min Rain = 0
KMES 240930Z 30002KT M05/M08 A3028 RMK A01 T10451078  RH  078%=      5-min Rain = 0
KMES 240935Z 29003KT M05/M08 A3029 RMK A01 T10461077  RH  079%=      5-min Rain = 0
KMES 240940Z 29002KT M04/M07 A3029 RMK A01 T10421074  RH  078%=      5-min Rain = 0
KMES 240945Z 27000KT M04/M08 A3029 RMK A01 T10421077  RH  077%=      5-min Rain = 0
KMES 240950Z 00000KT M05/M08 A3029 RMK A01 T10461081  RH  076%=      5-min Rain = 0
KMES 240955Z 28001KT M05/M09 A3029 RMK A01 T10511085  RH  077%=      5-min Rain = 0
KMES 241000Z 30004KT M05/M08 A3029 RMK A01 T10521080  RH  081%=      5-min Rain = 0
KMES 241005Z 31004KT M05/M08 A3029 RMK A01 T10451077  RH  078%=      5-min Rain = 0
KMES 241010Z 32004KT M05/M08 A3029 RMK A01 T10481081  RH  078%=      5-min Rain = 0
KMES 241015Z 31004KT M05/M08 A3029 RMK A01 T10521081  RH  080%=      5-min Rain = 0
KMES 241020Z 30002KT M05/M08 A303 RMK A01 T10501080  RH  079%=      5-min Rain = 0
KMES 241025Z 30002KT M05/M08 A303 RMK A01 T10531084  RH  079%=      5-min Rain = 0
KMES 241030Z 30003KT M06/M08 A303 RMK A01 T10551084  RH  080%=      5-min Rain = 0
KMES 241035Z 30003KT M06/M08 A303 RMK A01 T10551084  RH  080%=      5-min Rain = 0
KMES 241040Z 31002KT M06/M09 A303 RMK A01 T10591088  RH  080%=      5-min Rain = 0
KMES 241045Z 31002KT M06/M09 A303 RMK A01 T10611089  RH  081%=      5-min Rain = 0
KMES 241050Z 30003KT M06/M09 A303 RMK A01 T10631088  RH  082%=      5-min Rain = 0
KMES 241055Z 30003KT M06/M09 A303 RMK A01 T10611085  RH  083%=      5-min Rain = 0
KMES 241100Z 30004KT M06/M08 A303 RMK A01 T10591083  RH  083%=      5-min Rain = 0
KMES 241105Z 30003KT M06/M08 A303 RMK A01 T10571083  RH  082%=      5-min Rain = 0
KMES 241110Z 29003KT M06/M08 A3031 RMK A01 T10581083  RH  082%=      5-min Rain = 0
KMES 241115Z 30003KT M06/M08 A3031 RMK A01 T10561081  RH  082%=      5-min Rain = 0
KMES 241120Z 31004KT M05/M08 A3031 RMK A01 T10541084  RH  080%=      5-min Rain = 0
KMES 241125Z 31003KT M06/M09 A3031 RMK A01 T10571085  RH  081%=      5-min Rain = 0
KMES 241130Z 32003KT M06/M09 A3031 RMK A01 T10611088  RH  081%=      5-min Rain = 0
KMES 241135Z 32004KT M06/M09 A3031 RMK A01 T10621088  RH  082%=      5-min Rain = 0
KMES 241140Z 31005KT M06/M09 A3031 RMK A01 T10601086  RH  082%=      5-min Rain = 0
KMES 241145Z 31003KT M06/M09 A3032 RMK A01 T10561085  RH  080%=      5-min Rain = 0
KMES 241150Z 29004KT M05/M08 A3032 RMK A01 T10531083  RH  079%=      5-min Rain = 0
KMES 241155Z 30003KT M05/M09 A3032 RMK A01 T10531085  RH  078%=      5-min Rain = 0
KMES 241200Z 31002KT M06/M09 A3032 RMK A01 T10551088  RH  078%=      5-min Rain = 0
KMES 241205Z 28001KT M06/M09 A3032 RMK A01 T10571090  RH  078%=      5-min Rain = 0
KMES 241210Z 30003KT M06/M09 A3032 RMK A01 T10581089  RH  079%=      5-min Rain = 0
KMES 241215Z 32002KT M06/M09 A3032 RMK A01 T10591091  RH  078%=      5-min Rain = 0
KMES 241220Z 33002KT M06/M09 A3033 RMK A01 T10631094  RH  079%=      5-min Rain = 0
KMES 241225Z 33004KT M07/M09 A3033 RMK A01 T10651093  RH  080%=      5-min Rain = 0
KMES 241230Z 33004KT M06/M09 A3032 RMK A01 T10641092  RH  080%=      5-min Rain = 0
KMES 241235Z 33003KT M07/M09 A3032 RMK A01 T10671093  RH  082%=      5-min Rain = 0
KMES 241240Z 34003KT M07/M09 A3033 RMK A01 T10651090  RH  082%=      5-min Rain = 0
KMES 241245Z 35003KT M06/M09 A3033 RMK A01 T10611088  RH  081%=      5-min Rain = 0
KMES 241250Z 35001KT M06/M09 A3033 RMK A01 T10601088  RH  081%=      5-min Rain = 0
KMES 241255Z 33002KT M06/M09 A3033 RMK A01 T10591088  RH  080%=      5-min Rain = 0
KMES 241300Z 32002KT M06/M09 A3033 RMK A01 T10601088  RH  080%=      5-min Rain = 0
KMES 241305Z 33002KT M06/M09 A3033 RMK A01 T10611089  RH  080%=      5-min Rain = 0
KMES 241310Z 33001KT M06/M09 A3033 RMK A01 T10621090  RH  080%=      5-min Rain = 0
KMES 241315Z 32002KT M06/M09 A3033 RMK A01 T10591088  RH  080%=      5-min Rain = 0
KMES 241320Z 31002KT M06/M09 A3033 RMK A01 T10581088  RH  079%=      5-min Rain = 0
KMES 241325Z 27002KT M06/M09 A3034 RMK A01 T10561088  RH  078%=      5-min Rain = 0
KMES 241330Z 27003KT M06/M09 A3034 RMK A01 T10551088  RH  078%=      5-min Rain = 0
KMES 241335Z 27003KT M05/M09 A3034 RMK A01 T10511085  RH  077%=      5-min Rain = 0
KMES 241340Z 27002KT M05/M08 A3035 RMK A01 T10471083  RH  076%=      5-min Rain = 0
KMES 241345Z 23003KT M05/M09 A3035 RMK A01 T10471086  RH  074%=      5-min Rain = 0
KMES 241350Z 25003KT M05/M09 A3035 RMK A01 T10521088  RH  076%=      5-min Rain = 0
KMES 241355Z 25002KT M05/M08 A3036 RMK A01 T10471082  RH  077%=      5-min Rain = 0
KMES 241400Z 25002KT M04/M08 A3036 RMK A01 T10421079  RH  076%=      5-min Rain = 0
KMES 241405Z 25002KT M04/M08 A3036 RMK A01 T10381079  RH  073%=      5-min Rain = 0
KMES 241410Z 29001KT M03/M08 A3036 RMK A01 T10341077  RH  072%=      5-min Rain = 0
KMES 241415Z 29002KT M03/M08 A3036 RMK A01 T10311077  RH  070%=      5-min Rain = 0
KMES 241420Z 29001KT M03/M07 A3036 RMK A01 T10271074  RH  070%=      5-min Rain = 0
KMES 241425Z 32002KT M02/M07 A3036 RMK A01 T10241072  RH  070%=      5-min Rain = 0
KMES 241430Z 33003KT M02/M07 A3037 RMK A01 T10211067  RH  071%=      5-min Rain = 0
KMES 241435Z 32002KT M02/M06 A3037 RMK A01 T10161062  RH  071%=      5-min Rain = 0
KMES 241440Z 31002KT M01/M06 A3037 RMK A01 T10101060  RH  069%=      5-min Rain = 0
KMES 241445Z 31000KT M01/M06 A3038 RMK A01 T10061058  RH  068%=      5-min Rain = 0
KMES 241450Z 27001KT M00/M06 A3038 RMK A01 T10011055  RH  067%=      5-min Rain = 0
KMES 241455Z 23000KT 00/M05 A3038 RMK A01 T00031052  RH  067%=      5-min Rain = 0
KMES 241500Z 29000KT 01/M05 A3038 RMK A01 T00071049  RH  066%=      5-min Rain = 0
KMES 241505Z 26000KT 01/M05 A3038 RMK A01 T00131051  RH  063%=      5-min Rain = 0
KMES 241510Z 00000KT 02/M05 A3038 RMK A01 T00191051  RH  060%=      5-min Rain = 0
KMES 241515Z 00000KT 03/M05 A3039 RMK A01 T00291045  RH  058%=      5-min Rain = 0
KMES 241520Z 00000KT 04/M05 A3039 RMK A01 T00381046  RH  054%=      5-min Rain = 0
KMES 241525Z 00000KT 05/M05 A3039 RMK A01 T00461049  RH  050%=      5-min Rain = 0
KMES 241530Z 00000KT 05/M06 A3039 RMK A01 T00481059  RH  046%=      5-min Rain = 0
KMES 241535Z 22000KT 05/M09 A3039 RMK A01 T00471085  RH  038%=      5-min Rain = 0
KMES 241540Z 22000KT 05/M10 A304 RMK A01 T00471102  RH  033%=      5-min Rain = 0
KMES 241545Z 17001KT 05/M10 A304 RMK A01 T00501099  RH  033%=      5-min Rain = 0
KMES 241550Z 14002KT 05/M10 A304 RMK A01 T00541103  RH  031%=      5-min Rain = 0
KMES 241555Z 15004KT 06/M10 A304 RMK A01 T00571102  RH  031%=      5-min Rain = 0
KMES 241600Z 13003KT 06/M10 A304 RMK A01 T00581102  RH  030%=      5-min Rain = 0
KMES 241605Z 14002KT 06/M11 A304 RMK A01 T00601105  RH  029%=      5-min Rain = 0
KMES 241610Z 16003KT 06/M11 A304 RMK A01 T00621105  RH  029%=      5-min Rain = 0
KMES 241615Z 17003KT 06/M10 A304 RMK A01 T00631101  RH  030%=      5-min Rain = 0
KMES 241620Z 12005KT 07/M11 A304 RMK A01 T00661110  RH  027%=      5-min Rain = 0
KMES 241625Z 12005KT 07/M11 A304 RMK A01 T00651112  RH  027%=      5-min Rain = 0
KMES 241630Z 13005KT 07/M11 A3039 RMK A01 T00661112  RH  027%=      5-min Rain = 0
KMES 241635Z 15006KT 07/M11 A3039 RMK A01 T00651110  RH  027%=      5-min Rain = 0
KMES 241640Z 15007KT 07/M11 A3039 RMK A01 T00661108  RH  027%=      5-min Rain = 0
KMES 241645Z 14006KT 07/M10 A3039 RMK A01 T00691103  RH  028%=      5-min Rain = 0
KMES 241650Z 13005KT 07/M11 A3039 RMK A01 T00691105  RH  028%=      5-min Rain = 0
KMES 241655Z 14006KT 07/M10 A3039 RMK A01 T00681100  RH  029%=      5-min Rain = 0
KMES 241700Z 16006KT 07/M10 A3039 RMK A01 T00681101  RH  029%=      5-min Rain = 0
KMES 241705Z 15006KT 07/M10 A3039 RMK A01 T00721097  RH  029%=      5-min Rain = 0
KMES 241710Z 15007KT 07/M10 A3039 RMK A01 T00731104  RH  027%=      5-min Rain = 0
KMES 241715Z 16006KT 07/M11 A3039 RMK A01 T00741105  RH  027%=      5-min Rain = 0
KMES 241720Z 16007KT 08/M11 A3039 RMK A01 T00761112  RH  025%=      5-min Rain = 0
KMES 241725Z 15007KT 08/M11 A3039 RMK A01 T00771112  RH  025%=      5-min Rain = 0
KMES 241730Z 14007KT 08/M11 A3039 RMK A01 T00781108  RH  025%=      5-min Rain = 0
KMES 241735Z 15006KT 08/M11 A3039 RMK A01 T00791112  RH  024%=      5-min Rain = 0
KMES 241740Z 14008KT 08/M12 A3039 RMK A01 T00771115  RH  024%=      5-min Rain = 0
KMES 241745Z 13006KT 08/M11 A3039 RMK A01 T00771111  RH  025%=      5-min Rain = 0
KMES 241750Z 14008KT 08/M11 A3039 RMK A01 T00771114  RH  024%=      5-min Rain = 0
KMES 241755Z 14006G11KT 08/M11 A3038 RMK A01 T00791114  RH  024%=      5-min Rain = 0
KMES 241800Z 14006KT 08/M12 A3038 RMK A01 T00811119  RH  023%=      5-min Rain = 0
KMES 241805Z 15006G11KT 08/M12 A3038 RMK A01 T00831115  RH  023%=      5-min Rain = 0
KMES 241810Z 17007G12KT 08/M12 A3038 RMK A01 T00841116  RH  023%=      5-min Rain = 0
KMES 241815Z 14009KT 09/M11 A3038 RMK A01 T00851113  RH  023%=      5-min Rain = 0
KMES 241820Z 13008KT 09/M11 A3038 RMK A01 T00861111  RH  024%=      5-min Rain = 0
KMES 241825Z 15006G11KT 09/M11 A3038 RMK A01 T00861109  RH  024%=      5-min Rain = 0
KMES 241830Z 14010G15KT 09/M12 A3037 RMK A01 T00911115  RH  022%=      5-min Rain = 0
KMES 241835Z 14009KT 09/M12 A3037 RMK A01 T00901119  RH  021%=      5-min Rain = 0
KMES 241840Z 15009G15KT 09/M12 A3037 RMK A01 T00901118  RH  022%=      5-min Rain = 0
KMES 241845Z 16010KT 09/M12 A3037 RMK A01 T00901120  RH  021%=      5-min Rain = 0
KMES 241850Z 16008KT 09/M12 A3036 RMK A01 T00911115  RH  022%=      5-min Rain = 0
KMES 241855Z 14008G13KT 10/M11 A3036 RMK A01 T00981111  RH  022%=      5-min Rain = 0
KMES 241900Z 13007G13KT 10/M12 A3036 RMK A01 T00991115  RH  021%=      5-min Rain = 0
KMES 241905Z 13008G13KT 10/M11 A3035 RMK A01 T00981112  RH  022%=      5-min Rain = 0
KMES 241910Z 11008G14KT 10/M12 A3034 RMK A01 T00981116  RH  021%=      5-min Rain = 0
KMES 241915Z 11007KT 10/M11 A3033 RMK A01 T01021113  RH  021%=      5-min Rain = 0
KMES 241920Z 13009G15KT 10/M12 A3033 RMK A01 T01031120  RH  020%=      5-min Rain = 0
KMES 241925Z 12009G14KT 10/M12 A3033 RMK A01 T01041123  RH  019%=      5-min Rain = 0
KMES 241930Z 14010KT 11/M12 A3032 RMK A01 T01091120  RH  019%=      5-min Rain = 0
KMES 241935Z 14008G14KT 11/M13 A3032 RMK A01 T01051127  RH  018%=      5-min Rain = 0
KMES 241940Z 14009G14KT 11/M13 A3032 RMK A01 T01061125  RH  018%=      5-min Rain = 0
KMES 241945Z 13009G17KT 11/M13 A3031 RMK A01 T01061129  RH  018%=      5-min Rain = 0
KMES 241950Z 13009G14KT 11/M13 A3031 RMK A01 T01091130  RH  017%=      5-min Rain = 0
KMES 241955Z 13010G15KT 11/M13 A3031 RMK A01 T01091125  RH  018%=      5-min Rain = 0
KMES 242000Z 12010KT 11/M12 A303 RMK A01 T01091123  RH  018%=      5-min Rain = 0
KMES 242005Z 13011G16KT 11/M13 A303 RMK A01 T01111125  RH  018%=      5-min Rain = 0
KMES 242010Z 14008G13KT 11/M12 A3029 RMK A01 T01111122  RH  018%=      5-min Rain = 0
KMES 242015Z 15010G17KT 11/M12 A3029 RMK A01 T01131118  RH  018%=      5-min Rain = 0
KMES 242020Z 14010KT 11/M12 A3029 RMK A01 T01141115  RH  019%=      5-min Rain = 0
KMES 242025Z 13011G17KT 12/M11 A3029 RMK A01 T01181112  RH  019%=      5-min Rain = 0
KMES 242030Z 14010G15KT 12/M11 A3029 RMK A01 T01161111  RH  019%=      5-min Rain = 0
KMES 242035Z 15010KT 12/M11 A3028 RMK A01 T01171109  RH  019%=      5-min Rain = 0
KMES 242040Z 15010G15KT 12/M11 A3028 RMK A01 T01181110  RH  019%=      5-min Rain = 0
KMES 242045Z 15010G17KT 12/M11 A3028 RMK A01 T01161111  RH  019%=      5-min Rain = 0
KMES 242050Z 15011G16KT 12/M11 A3028 RMK A01 T01181109  RH  019%=      5-min Rain = 0
KMES 242055Z 15011KT 12/M11 A3027 RMK A01 T01201110  RH  019%=      5-min Rain = 0
KMES 242100Z 14009G14KT 12/M11 A3027 RMK A01 T01201109  RH  019%=      5-min Rain = 0
KMES 242105Z 14011G16KT 12/M11 A3027 RMK A01 T01211112  RH  018%=      5-min Rain = 0
KMES 242110Z 15010KT 12/M11 A3026 RMK A01 T01211109  RH  019%=      5-min Rain = 0
KMES 242115Z 14009G14KT 12/M11 A3026 RMK A01 T01221108  RH  019%=      5-min Rain = 0
KMES 242120Z 15010G15KT 13/M11 A3026 RMK A01 T01251114  RH  018%=      5-min Rain = 0
KMES 242125Z 15009G14KT 12/M11 A3026 RMK A01 T01231112  RH  018%=      5-min Rain = 0
KMES 242130Z 14012G21KT 13/M11 A3026 RMK A01 T01251111  RH  018%=      5-min Rain = 0
KMES 242135Z 15010G15KT 12/M11 A3026 RMK A01 T01241112  RH  018%=      5-min Rain = 0
KMES 242140Z 12012G17KT 13/M11 A3025 RMK A01 T01271110  RH  018%=      5-min Rain = 0
KMES 242145Z 13011G17KT 13/M11 A3025 RMK A01 T01281109  RH  018%=      5-min Rain = 0
KMES 242150Z 13011G17KT 13/M11 A3025 RMK A01 T01281108  RH  018%=      5-min Rain = 0
KMES 242155Z 15011G17KT 13/M11 A3025 RMK A01 T01251108  RH  018%=      5-min Rain = 0
KMES 242200Z 15010G17KT 12/M11 A3025 RMK A01 T01231108  RH  019%=      5-min Rain = 0
KMES 242205Z 15011G16KT 12/M11 A3025 RMK A01 T01221109  RH  019%=      5-min Rain = 0
KMES 242210Z 15010G15KT 13/M11 A3024 RMK A01 T01251108  RH  019%=      5-min Rain = 0
KMES 242215Z 13013G22KT 13/M11 A3024 RMK A01 T01301108  RH  018%=      5-min Rain = 0
KMES 242220Z 14012G18KT 13/M11 A3024 RMK A01 T01261109  RH  018%=      5-min Rain = 0
KMES 242225Z 14012KT 13/M11 A3024 RMK A01 T01291108  RH  018%=      5-min Rain = 0
KMES 242230Z 14014G19KT 13/M11 A3024 RMK A01 T01281109  RH  018%=      5-min Rain = 0
KMES 242235Z 14013G20KT 13/M11 A3024 RMK A01 T01271108  RH  018%=      5-min Rain = 0
KMES 242240Z 14014G20KT 13/M11 A3024 RMK A01 T01261109  RH  018%=      5-min Rain = 0
KMES 242245Z 13014G19KT 13/M11 A3024 RMK A01 T01251109  RH  018%=      5-min Rain = 0
KMES 242250Z 13015KT 13/M11 A3024 RMK A01 T01261107  RH  018%=      5-min Rain = 0
KMES 242255Z 14012G19KT 13/M11 A3024 RMK A01 T01261107  RH  018%=      5-min Rain = 0
KMES 242300Z 15011G18KT 13/M11 A3024 RMK A01 T01271108  RH  018%=      5-min Rain = 0
KMES 242305Z 14012G17KT 13/M11 A3024 RMK A01 T01261108  RH  018%=      5-min Rain = 0
KMES 242310Z 13013G19KT 13/M11 A3024 RMK A01 T01251109  RH  018%=      5-min Rain = 0
KMES 242315Z 13014G19KT 12/M11 A3023 RMK A01 T01241107  RH  019%=      5-min Rain = 0
KMES 242320Z 14014G21KT 12/M11 A3024 RMK A01 T01241110  RH  018%=      5-min Rain = 0
KMES 242325Z 15011G16KT 12/M11 A3024 RMK A01 T01211110  RH  019%=      5-min Rain = 0
KMES 242330Z 15011KT 12/M11 A3023 RMK A01 T01181110  RH  019%=      5-min Rain = 0
KMES 242335Z 15009G14KT 12/M11 A3023 RMK A01 T01171107  RH  020%=      5-min Rain = 0
KMES 242340Z 15012KT 12/M11 A3023 RMK A01 T01161107  RH  020%=      5-min Rain = 0
KMES 242345Z 14012KT 12/M11 A3024 RMK A01 T01151108  RH  020%=      5-min Rain = 0
KMES 242350Z 14011KT 11/M11 A3023 RMK A01 T01131106  RH  020%=      5-min Rain = 0
KMES 242355Z 13011KT 11/M10 A3023 RMK A01 T01111103  RH  021%=      5-min Rain = 0
KMES 250000Z 13012KT 11/M10 A3023 RMK A01 T01101101  RH  022%=      5-min Rain = 0
KMES 250005Z 13011KT 11/M10 A3023 RMK A01 T01091100  RH  022%=      5-min Rain = 0
KMES 250010Z 13011KT 11/M10 A3023 RMK A01 T01071099  RH  022%=      5-min Rain = 0
KMES 250015Z 13011KT 11/M10 A3024 RMK A01 T01051099  RH  023%=      5-min Rain = 0
KMES 250020Z 13010KT 10/M10 A3024 RMK A01 T01031098  RH  023%=      5-min Rain = 0
KMES 250025Z 13010KT 10/M10 A3024 RMK A01 T01001096  RH  024%=      5-min Rain = 0
KMES 250030Z 14010KT 10/M10 A3024 RMK A01 T00991096  RH  024%=      5-min Rain = 0
KMES 250035Z 13008KT 10/M10 A3024 RMK A01 T00951096  RH  025%=      5-min Rain = 0
KMES 250040Z 13007KT 09/M10 A3024 RMK A01 T00921096  RH  025%=      5-min Rain = 0
KMES 250045Z 13007KT 09/M10 A3024 RMK A01 T00881097  RH  026%=      5-min Rain = 0
KMES 250050Z 13007KT 09/M10 A3024 RMK A01 T00861098  RH  026%=      5-min Rain = 0
KMES 250055Z 13007KT 08/M10 A3024 RMK A01 T00841096  RH  027%=      5-min Rain = 0
KMES 250100Z 13008KT 08/M10 A3024 RMK A01 T00821095  RH  027%=      5-min Rain = 0
KMES 250105Z 13008KT 08/M10 A3025 RMK A01 T00811095  RH  028%=      5-min Rain = 0
KMES 250110Z 13008KT 08/M09 A3025 RMK A01 T00791094  RH  028%=      5-min Rain = 0
KMES 250115Z 13008KT 08/M09 A3025 RMK A01 T00781094  RH  028%=      5-min Rain = 0
KMES 250120Z 13008KT 08/M09 A3025 RMK A01 T00771094  RH  029%=      5-min Rain = 0
KMES 250125Z 13008KT 08/M09 A3025 RMK A01 T00771094  RH  029%=      5-min Rain = 0
KMES 250130Z 13008KT 08/M09 A3025 RMK A01 T00751094  RH  029%=      5-min Rain = 0
KMES 250135Z 13008KT 07/M09 A3025 RMK A01 T00731094  RH  029%=      5-min Rain = 0
KMES 250140Z 12008KT 07/M09 A3025 RMK A01 T00721094  RH  030%=      5-min Rain = 0
KMES 250145Z 12007KT 07/M09 A3025 RMK A01 T00701094  RH  030%=      5-min Rain = 0
KMES 250150Z 11007KT 07/M10 A3026 RMK A01 T00661095  RH  030%=      5-min Rain = 0
KMES 250155Z 12007KT 06/M10 A3026 RMK A01 T00641095  RH  031%=      5-min Rain = 0
KMES 250200Z 12007KT 06/M10 A3026 RMK A01 T00621096  RH  031%=      5-min Rain = 0
KMES 250205Z 12008KT 06/M10 A3026 RMK A01 T00621096  RH  031%=      5-min Rain = 0
KMES 250210Z 12008KT 06/M10 A3025 RMK A01 T00611095  RH  031%=      5-min Rain = 0
KMES 250215Z 12008KT 06/M10 A3025 RMK A01 T00601095  RH  032%=      5-min Rain = 0
KMES 250220Z 13009KT 06/M10 A3025 RMK A01 T00581095  RH  032%=      5-min Rain = 0
KMES 250225Z 13009KT 06/M10 A3025 RMK A01 T00581095  RH  032%=      5-min Rain = 0
KMES 250230Z 13009KT 06/M09 A3025 RMK A01 T00571093  RH  033%=      5-min Rain = 0
KMES 250235Z 12009KT 06/M09 A3025 RMK A01 T00571090  RH  034%=      5-min Rain = 0
KMES 250240Z 12009KT 06/M09 A3025 RMK A01 T00581087  RH  034%=      5-min Rain = 0
KMES 250245Z 12008KT 06/M09 A3025 RMK A01 T00571086  RH  035%=      5-min Rain = 0
KMES 250250Z 12008KT 06/M09 A3025 RMK A01 T00561085  RH  035%=      5-min Rain = 0
KMES 250255Z 12008KT 06/M08 A3025 RMK A01 T00551084  RH  036%=      5-min Rain = 0
KMES 250300Z 12007KT 05/M08 A3025 RMK A01 T00541083  RH  037%=      5-min Rain = 0
KMES 250305Z 11007KT 05/M08 A3025 RMK A01 T00531082  RH  037%=      5-min Rain = 0
KMES 250310Z 12006KT 05/M08 A3026 RMK A01 T00511081  RH  038%=      5-min Rain = 0
KMES 250315Z 12006KT 05/M08 A3026 RMK A01 T00491079  RH  039%=      5-min Rain = 0
KMES 250320Z 12006KT 05/M08 A3026 RMK A01 T00461080  RH  039%=      5-min Rain = 0
KMES 250325Z 12005KT 04/M08 A3026 RMK A01 T00431080  RH  040%=      5-min Rain = 0
KMES 250330Z 12005KT 04/M08 A3026 RMK A01 T00401080  RH  041%=      5-min Rain = 0
KMES 250335Z 12004KT 04/M08 A3026 RMK A01 T00371080  RH  042%=      5-min Rain = 0
KMES 250340Z 12004KT 03/M08 A3026 RMK A01 T00341079  RH  043%=      5-min Rain = 0
KMES 250345Z 14004KT 03/M08 A3026 RMK A01 T00341080  RH  043%=      5-min Rain = 0
KMES 250350Z 14004KT 03/M08 A3026 RMK A01 T00341079  RH  043%=      5-min Rain = 0
KMES 250355Z 13004KT 03/M08 A3025 RMK A01 T00331079  RH  044%=      5-min Rain = 0
KMES 250400Z 13004KT 03/M08 A3025 RMK A01 T00311079  RH  044%=      5-min Rain = 0
KMES 250405Z 13002KT 03/M08 A3025 RMK A01 T00291079  RH  045%=      5-min Rain = 0
KMES 250410Z 14001KT 03/M08 A3026 RMK A01 T00281080  RH  045%=      5-min Rain = 0
KMES 250415Z 14000KT 03/M08 A3026 RMK A01 T00271077  RH  046%=      5-min Rain = 0
KMES 250420Z 13000KT 03/M08 A3026 RMK A01 T00261076  RH  047%=      5-min Rain = 0
KMES 250425Z 12000KT 03/M07 A3026 RMK A01 T00251074  RH  048%=      5-min Rain = 0
KMES 250430Z 14001KT 02/M07 A3026 RMK A01 T00241073  RH  048%=      5-min Rain = 0
KMES 250435Z 14003KT 03/M07 A3025 RMK A01 T00251073  RH  048%=      5-min Rain = 0
KMES 250440Z 14002KT 03/M07 A3025 RMK A01 T00261073  RH  048%=      5-min Rain = 0
KMES 250445Z 14001KT 03/M07 A3025 RMK A01 T00251074  RH  048%=      5-min Rain = 0
KMES 250450Z 14003KT 02/M07 A3026 RMK A01 T00241073  RH  049%=      5-min Rain = 0
KMES 250455Z 12002KT 02/M08 A3026 RMK A01 T00221075  RH  049%=      5-min Rain = 0
KMES 250500Z 11001KT 02/M08 A3026 RMK A01 T00191077  RH  049%=      5-min Rain = 0
KMES 250505Z 10000KT 02/M08 A3026 RMK A01 T00161078  RH  050%=      5-min Rain = 0
KMES 250510Z 11000KT 01/M08 A3025 RMK A01 T00131077  RH  051%=      5-min Rain = 0
KMES 250515Z 12000KT 01/M08 A3025 RMK A01 T00111077  RH  052%=      5-min Rain = 0
KMES 250520Z 15001KT 01/M07 A3025 RMK A01 T00111074  RH  053%=      5-min Rain = 0
KMES 250525Z 15003KT 01/M07 A3025 RMK A01 T00131073  RH  053%=      5-min Rain = 0
KMES 250530Z 14004KT 01/M07 A3025 RMK A01 T00141072  RH  053%=      5-min Rain = 0
KMES 250535Z 14004KT 02/M07 A3025 RMK A01 T00151071  RH  052%=      5-min Rain = 0
KMES 250540Z 14005KT 02/M07 A3025 RMK A01 T00161071  RH  052%=      5-min Rain = 0
KMES 250545Z 15004KT 02/M07 A3025 RMK A01 T00161071  RH  052%=      5-min Rain = 0
KMES 250550Z 15004KT 02/M07 A3025 RMK A01 T00161071  RH  053%=      5-min Rain = 0
KMES 250555Z 14003KT 02/M07 A3025 RMK A01 T00161070  RH  053%=      5-min Rain = 0

Page generated in 0.0167 seconds.